createdAt,value
2023-02-28T00:00:13.878Z,-1.72
2023-02-28T00:02:41.697Z,-1.63
2023-02-28T00:05:09.775Z,-1.74
2023-02-28T00:07:37.233Z,-1.74
2023-02-28T00:10:08.599Z,-1.78
2023-02-28T00:12:35.908Z,-1.85
2023-02-28T00:15:06.044Z,-1.97
2023-02-28T00:17:33.285Z,-1.91
2023-02-28T00:20:12.918Z,-2.00
2023-02-28T00:22:41.164Z,-2.12
2023-02-28T00:25:08.737Z,-2.20
2023-02-28T00:27:36.693Z,-2.23
2023-02-28T00:30:06.367Z,-2.25
2023-02-28T00:32:33.660Z,-2.25
2023-02-28T00:35:02.258Z,-2.29
2023-02-28T00:37:29.463Z,-2.33
2023-02-28T00:39:57.226Z,-2.42
2023-02-28T00:42:24.597Z,-2.38
2023-02-28T00:44:51.855Z,-2.44
2023-02-28T00:47:18.999Z,-2.51
2023-02-28T00:49:46.292Z,-2.45
2023-02-28T00:52:13.408Z,-2.42
2023-02-28T00:54:40.505Z,-2.42
2023-02-28T00:57:08.436Z,-2.53
2023-02-28T00:59:36.184Z,-2.56
2023-02-28T01:02:03.244Z,-2.57
2023-02-28T01:04:30.535Z,-2.58
2023-02-28T01:06:57.631Z,-2.66
2023-02-28T01:09:24.780Z,-2.71
2023-02-28T01:11:51.840Z,-2.78
2023-02-28T01:14:19.486Z,-2.83
2023-02-28T01:16:46.666Z,-2.87
2023-02-28T01:19:14.046Z,-3.05
2023-02-28T01:21:41.053Z,-3.13
2023-02-28T01:24:08.383Z,-3.03
2023-02-28T01:26:36.441Z,-3.14
2023-02-28T01:29:04.104Z,-3.17
2023-02-28T01:31:31.554Z,-2.99
2023-02-28T01:33:59.344Z,-2.99
2023-02-28T01:36:29.397Z,-2.99
2023-02-28T01:38:56.931Z,-2.94
2023-02-28T01:41:26.347Z,-2.97
2023-02-28T01:43:56.197Z,-2.96
2023-02-28T01:46:23.491Z,-3.02
2023-02-28T01:49:00.861Z,-3.05
2023-02-28T01:51:28.250Z,-3.12
2023-02-28T01:54:06.796Z,-3.18
2023-02-28T01:56:36.933Z,-3.24
2023-02-28T01:59:05.874Z,-3.24
2023-02-28T02:01:33.179Z,-3.21
2023-02-28T02:04:03.463Z,-3.21
2023-02-28T02:06:32.220Z,-3.12
2023-02-28T02:08:59.346Z,-3.11
2023-02-28T02:11:27.096Z,-3.14
2023-02-28T02:14:04.518Z,-3.14
2023-02-28T02:16:47.087Z,-3.14
2023-02-28T02:19:14.154Z,-3.20
2023-02-28T02:21:59.577Z,-3.15
2023-02-28T02:24:42.552Z,-3.25
2023-02-28T02:27:12.868Z,-3.33
2023-02-28T02:29:48.198Z,-3.31
2023-02-28T02:32:21.435Z,-3.22
2023-02-28T02:34:58.156Z,-3.18
2023-02-28T02:37:33.320Z,-3.26
2023-02-28T02:40:04.729Z,-3.26
2023-02-28T02:42:34.386Z,-3.40
2023-02-28T02:45:04.087Z,-3.46
2023-02-28T02:47:33.281Z,-3.50
2023-02-28T02:50:02.221Z,-3.49
2023-02-28T02:52:38.292Z,-3.49
2023-02-28T02:55:08.610Z,-3.50
2023-02-28T02:57:43.951Z,-3.34
2023-02-28T03:00:11.918Z,-3.23
2023-02-28T03:02:40.308Z,-3.33
2023-02-28T03:05:18.700Z,-3.35
2023-02-28T03:07:45.856Z,-3.40
2023-02-28T03:10:49.081Z,-3.38
2023-02-28T03:13:29.907Z,-3.33
2023-02-28T03:16:02.674Z,-3.34
2023-02-28T03:18:37.461Z,-3.24
2023-02-28T03:21:20.011Z,-3.28
2023-02-28T03:23:49.192Z,-3.33
2023-02-28T03:26:21.726Z,-3.35
2023-02-28T03:29:02.177Z,-3.33
2023-02-28T03:31:36.592Z,-3.35
2023-02-28T03:34:06.736Z,-3.46
2023-02-28T03:36:37.575Z,-3.58
2023-02-28T03:39:09.642Z,-3.62
2023-02-28T03:41:41.830Z,-3.62
2023-02-28T03:44:17.868Z,-3.68
2023-02-28T03:46:49.449Z,-3.74
2023-02-28T03:49:19.909Z,-3.81
2023-02-28T03:51:48.224Z,-3.89
2023-02-28T03:54:19.821Z,-3.97
2023-02-28T03:56:54.046Z,-4.06
2023-02-28T03:59:29.783Z,-4.09
2023-02-28T04:01:59.406Z,-4.13
2023-02-28T04:04:26.870Z,-4.13
2023-02-28T04:07:01.434Z,-4.17
2023-02-28T04:09:28.851Z,-4.22
2023-02-28T04:11:58.980Z,-4.16
2023-02-28T04:14:26.166Z,-4.18
2023-02-28T04:16:53.452Z,-4.23
2023-02-28T04:19:20.588Z,-4.36
2023-02-28T04:21:49.334Z,-4.38
2023-02-28T04:24:18.250Z,-4.44
2023-02-28T04:26:47.038Z,-4.42
2023-02-28T04:29:14.976Z,-4.44
2023-02-28T04:31:42.150Z,-4.50
2023-02-28T04:34:09.359Z,-4.63
2023-02-28T04:36:36.451Z,-4.70
2023-02-28T04:39:05.052Z,-4.66
2023-02-28T04:41:32.936Z,-4.61
2023-02-28T04:44:00.442Z,-4.65
2023-02-28T04:46:27.731Z,-4.68
2023-02-28T04:48:55.603Z,-4.79
2023-02-28T04:51:23.150Z,-4.80
2023-02-28T04:53:50.205Z,-4.61
2023-02-28T04:56:18.121Z,-4.70
2023-02-28T04:58:45.551Z,-4.78
2023-02-28T05:01:26.366Z,-4.76
2023-02-28T05:03:54.377Z,-4.67
2023-02-28T05:06:22.368Z,-4.53
2023-02-28T05:08:49.488Z,-4.42
2023-02-28T05:11:21.405Z,-4.48
2023-02-28T05:13:49.129Z,-4.52
2023-02-28T05:16:16.625Z,-4.61
2023-02-28T05:18:43.750Z,-4.62
2023-02-28T05:21:31.264Z,-4.58
2023-02-28T05:23:59.933Z,-4.70
2023-02-28T05:26:27.856Z,-4.76
2023-02-28T05:28:55.287Z,-4.87
2023-02-28T05:31:22.993Z,-4.99
2023-02-28T05:33:50.136Z,-4.99
2023-02-28T05:36:17.330Z,-4.98
2023-02-28T05:38:46.599Z,-5.05
2023-02-28T05:41:13.684Z,-5.02
2023-02-28T05:43:40.822Z,-5.07
2023-02-28T05:46:08.886Z,-5.09
2023-02-28T05:48:39.665Z,-5.17
2023-02-28T05:51:08.408Z,-5.19
2023-02-28T05:53:37.619Z,-5.13
2023-02-28T05:56:06.904Z,-5.01
2023-02-28T05:58:35.864Z,-4.97
2023-02-28T06:01:29.358Z,-5.05
2023-02-28T06:03:56.746Z,-5.04
2023-02-28T06:06:23.674Z,-4.96
2023-02-28T06:08:50.521Z,-4.89
2023-02-28T06:11:17.425Z,-4.82
2023-02-28T06:13:44.415Z,-4.78
2023-02-28T06:16:12.566Z,-4.65
2023-02-28T06:18:39.885Z,-4.54
2023-02-28T06:21:06.888Z,-4.51
2023-02-28T06:23:33.749Z,-4.56
2023-02-28T06:26:00.650Z,-4.63
2023-02-28T06:28:27.603Z,-4.57
2023-02-28T06:30:54.501Z,-4.45
2023-02-28T06:33:21.444Z,-4.46
2023-02-28T06:35:50.987Z,-4.45
2023-02-28T06:38:21.211Z,-4.46
2023-02-28T06:40:54.078Z,-4.48
2023-02-28T06:43:21.040Z,-4.43
2023-02-28T06:45:47.904Z,-4.43
2023-02-28T06:48:14.760Z,-4.51
2023-02-28T06:50:41.655Z,-4.51
2023-02-28T06:53:08.493Z,-4.46
2023-02-28T06:55:35.358Z,-4.39
2023-02-28T06:58:02.297Z,-4.29
2023-02-28T07:00:29.423Z,-4.24
2023-02-28T07:02:57.350Z,-4.13
2023-02-28T07:05:26.840Z,-4.06
2023-02-28T07:07:53.824Z,-4.02
2023-02-28T07:10:21.414Z,-3.94
2023-02-28T07:12:48.416Z,-3.73
2023-02-28T07:15:15.353Z,-3.70
2023-02-28T07:17:42.233Z,-3.63
2023-02-28T07:20:09.452Z,-3.44
2023-02-28T07:22:36.348Z,-3.43
2023-02-28T07:25:03.320Z,-3.35
2023-02-28T07:27:30.241Z,-3.12
2023-02-28T07:29:57.295Z,-2.83
2023-02-28T07:32:24.449Z,-2.72
2023-02-28T07:34:51.586Z,-2.42
2023-02-28T07:37:18.483Z,-2.39
2023-02-28T07:39:49.886Z,-2.38
2023-02-28T07:42:16.918Z,-2.22
2023-02-28T07:44:44.793Z,-2.02
2023-02-28T07:47:11.769Z,-1.79
2023-02-28T07:49:39.346Z,-1.72
2023-02-28T07:52:07.569Z,-1.69
2023-02-28T07:54:35.576Z,-1.49
2023-02-28T07:57:07.210Z,-1.38
2023-02-28T07:59:34.058Z,-1.36
2023-02-28T08:02:01.093Z,-1.32
2023-02-28T08:04:28.058Z,-1.16
2023-02-28T08:06:55.141Z,-0.96
2023-02-28T08:09:24.749Z,-0.96
2023-02-28T08:11:52.608Z,-1.11
2023-02-28T08:14:19.745Z,-0.86
2023-02-28T08:16:46.581Z,-0.81
2023-02-28T08:19:13.457Z,-0.62
2023-02-28T08:21:40.915Z,-0.48
2023-02-28T08:24:07.896Z,-0.41
2023-02-28T08:26:37.907Z,-0.41
2023-02-28T08:29:04.794Z,-0.38
2023-02-28T08:31:32.120Z,-0.46
2023-02-28T08:34:00.311Z,-0.54
2023-02-28T08:36:29.632Z,-0.79
2023-02-28T08:38:57.685Z,-0.74
2023-02-28T08:41:25.358Z,-0.50
2023-02-28T08:43:52.706Z,-0.22
2023-02-28T08:46:19.606Z,-0.16
2023-02-28T08:48:47.045Z,-0.24
2023-02-28T08:51:14.993Z,-0.25
2023-02-28T08:53:41.898Z,-0.10
2023-02-28T08:56:10.805Z,-0.11
2023-02-28T08:58:37.792Z,-0.36
2023-02-28T09:01:16.797Z,-0.30
2023-02-28T09:03:44.153Z,-0.24
2023-02-28T09:06:11.189Z,-0.15
2023-02-28T09:08:38.223Z,0.07
2023-02-28T09:11:05.192Z,0.11
2023-02-28T09:13:33.304Z,0.37
2023-02-28T09:16:01.180Z,0.23
2023-02-28T09:18:28.572Z,0.39
2023-02-28T09:20:55.603Z,0.52
2023-02-28T09:23:22.930Z,0.54
2023-02-28T09:25:52.011Z,0.77
2023-02-28T09:28:19.100Z,0.67
2023-02-28T09:30:46.968Z,0.79
2023-02-28T09:33:14.369Z,1.13
2023-02-28T09:35:41.496Z,1.47
2023-02-28T09:38:09.736Z,1.40
2023-02-28T09:40:53.145Z,1.69
2023-02-28T09:43:23.023Z,2.02
2023-02-28T09:45:53.387Z,2.47
2023-02-28T09:48:23.974Z,2.54
2023-02-28T09:50:53.293Z,2.80
2023-02-28T09:53:35.171Z,2.13
2023-02-28T09:56:06.252Z,1.77
2023-02-28T09:58:37.290Z,1.25
2023-02-28T10:01:08.432Z,1.57
2023-02-28T10:03:47.930Z,1.24
2023-02-28T10:06:17.850Z,0.59
2023-02-28T10:08:51.762Z,1.20
2023-02-28T10:11:19.278Z,1.62
2023-02-28T10:14:06.907Z,1.11
2023-02-28T10:16:33.787Z,0.94
2023-02-28T10:19:19.406Z,1.11
2023-02-28T10:21:55.600Z,1.57
2023-02-28T10:24:34.038Z,1.33
2023-02-28T10:27:03.089Z,0.86
2023-02-28T10:29:32.723Z,0.76
2023-02-28T10:32:02.109Z,1.48
2023-02-28T10:34:29.022Z,1.36
2023-02-28T10:36:56.768Z,0.89
2023-02-28T10:39:39.897Z,1.40
2023-02-28T10:42:19.479Z,1.42
2023-02-28T10:44:46.418Z,1.40
2023-02-28T10:47:18.404Z,1.32
2023-02-28T10:49:50.241Z,1.20
2023-02-28T10:52:33.481Z,0.74
2023-02-28T10:55:18.975Z,0.53
2023-02-28T10:57:45.834Z,0.46
2023-02-28T11:00:18.395Z,0.48
2023-02-28T11:02:45.635Z,0.45
2023-02-28T11:05:27.970Z,0.78
2023-02-28T11:07:56.123Z,1.01
2023-02-28T11:10:25.800Z,1.50
2023-02-28T11:12:56.146Z,1.15
2023-02-28T11:15:30.712Z,1.10
2023-02-28T11:18:09.569Z,1.43
2023-02-28T11:20:36.681Z,1.58
2023-02-28T11:23:05.021Z,1.46
2023-02-28T11:25:38.011Z,1.60
2023-02-28T11:28:07.580Z,0.91
2023-02-28T11:30:39.326Z,0.37
2023-02-28T11:33:27.950Z,0.10
2023-02-28T11:35:59.469Z,0.05
2023-02-28T11:38:26.979Z,0.01
2023-02-28T11:41:00.358Z,0.11
2023-02-28T11:43:45.796Z,0.33
2023-02-28T11:46:15.703Z,0.26
2023-02-28T11:49:01.206Z,0.21
2023-02-28T11:51:35.495Z,0.47
2023-02-28T11:54:08.499Z,0.62
2023-02-28T11:56:38.197Z,0.85
2023-02-28T11:59:11.158Z,1.10
2023-02-28T12:01:57.560Z,1.28
2023-02-28T12:04:27.728Z,1.08
2023-02-28T12:07:00.502Z,0.61
2023-02-28T12:09:44.912Z,0.53
2023-02-28T12:12:19.130Z,0.51
2023-02-28T12:15:09.004Z,0.28
2023-02-28T12:17:56.103Z,0.37
2023-02-28T12:20:31.933Z,0.62
2023-02-28T12:23:13.129Z,1.01
2023-02-28T12:25:45.853Z,1.17
2023-02-28T12:28:15.643Z,1.44
2023-02-28T12:30:53.203Z,1.66
2023-02-28T12:33:23.720Z,1.37
2023-02-28T12:35:53.150Z,1.28
2023-02-28T12:38:22.178Z,1.27
2023-02-28T12:40:55.709Z,1.40
2023-02-28T12:43:23.628Z,1.33
2023-02-28T12:46:02.621Z,1.36
2023-02-28T12:48:47.666Z,1.41
2023-02-28T12:51:16.526Z,1.37
2023-02-28T12:53:55.393Z,1.39
2023-02-28T12:56:44.894Z,1.43
2023-02-28T12:59:18.949Z,1.37
2023-02-28T13:02:03.272Z,1.46
2023-02-28T13:04:41.178Z,1.47
2023-02-28T13:07:14.010Z,1.39
2023-02-28T13:09:41.133Z,1.48
2023-02-28T13:12:28.383Z,1.44
2023-02-28T13:15:08.465Z,1.29
2023-02-28T13:17:35.486Z,1.38
2023-02-28T13:20:02.599Z,1.38
2023-02-28T13:22:36.365Z,1.42
2023-02-28T13:25:03.319Z,1.59
2023-02-28T13:27:35.854Z,1.74
2023-02-28T13:30:22.760Z,1.49
2023-02-28T13:33:10.011Z,1.44
2023-02-28T13:35:39.188Z,1.11
2023-02-28T13:38:20.639Z,1.03
2023-02-28T13:40:47.756Z,1.13
2023-02-28T13:43:22.571Z,1.34
2023-02-28T13:46:12.096Z,1.37
2023-02-28T13:48:40.408Z,1.44
2023-02-28T13:51:33.697Z,1.47
2023-02-28T13:54:23.304Z,1.34
2023-02-28T13:57:04.774Z,1.38
2023-02-28T13:59:39.035Z,1.31
2023-02-28T14:02:25.024Z,1.48
2023-02-28T14:05:10.332Z,1.26
2023-02-28T14:07:50.447Z,1.30
2023-02-28T14:10:24.237Z,1.27
2023-02-28T14:12:59.310Z,1.36
2023-02-28T14:15:44.868Z,1.47
2023-02-28T14:18:14.716Z,1.58
2023-02-28T14:20:42.170Z,1.51
2023-02-28T14:23:25.803Z,1.48
2023-02-28T14:26:23.284Z,1.44
2023-02-28T14:28:50.245Z,1.47
2023-02-28T14:31:25.791Z,1.43
2023-02-28T14:34:04.704Z,1.43
2023-02-28T14:36:37.503Z,1.36
2023-02-28T14:39:12.323Z,1.33
2023-02-28T14:41:40.812Z,1.35
2023-02-28T14:44:26.168Z,1.29
2023-02-28T14:47:01.636Z,1.13
2023-02-28T14:49:29.849Z,0.98
2023-02-28T14:52:15.449Z,0.97
2023-02-28T14:55:09.093Z,0.86
2023-02-28T14:57:42.151Z,0.98
2023-02-28T15:00:18.526Z,1.00
2023-02-28T15:02:45.925Z,1.06
2023-02-28T15:05:18.964Z,1.04
2023-02-28T15:07:50.232Z,1.05
2023-02-28T15:10:26.793Z,1.02
2023-02-28T15:12:59.978Z,1.02
2023-02-28T15:16:05.413Z,1.07
2023-02-28T15:18:43.127Z,0.94
2023-02-28T15:21:19.154Z,0.95
2023-02-28T15:24:00.333Z,0.85
2023-02-28T15:26:42.000Z,0.77
2023-02-28T15:29:15.695Z,0.63
2023-02-28T15:31:58.601Z,0.64
2023-02-28T15:34:42.872Z,0.57
2023-02-28T15:37:47.760Z,0.57
2023-02-28T15:40:25.252Z,0.40
2023-02-28T15:43:19.664Z,0.41
2023-02-28T15:46:11.323Z,0.32
2023-02-28T15:48:45.030Z,0.52
2023-02-28T15:51:23.336Z,0.47
2023-02-28T15:53:59.363Z,0.44
2023-02-28T15:56:35.310Z,0.57
2023-02-28T15:59:25.662Z,0.38
2023-02-28T16:02:11.122Z,0.30
2023-02-28T16:04:54.950Z,0.38
2023-02-28T16:07:22.041Z,0.45
2023-02-28T16:09:49.218Z,0.52
2023-02-28T16:12:16.475Z,0.25
2023-02-28T16:14:43.996Z,0.23
2023-02-28T16:17:24.191Z,0.16
2023-02-28T16:19:51.549Z,0.16
2023-02-28T16:22:18.644Z,0.22
2023-02-28T16:24:45.807Z,0.25
2023-02-28T16:27:53.116Z,0.16
2023-02-28T16:30:24.521Z,0.00
2023-02-28T16:32:52.685Z,-0.05
2023-02-28T16:35:20.908Z,-0.17
2023-02-28T16:37:48.784Z,-0.28
2023-02-28T16:40:22.391Z,-0.43
2023-02-28T16:42:57.547Z,-0.47
2023-02-28T16:45:28.203Z,-0.55
2023-02-28T16:47:56.468Z,-0.63
2023-02-28T16:50:29.039Z,-0.65
2023-02-28T16:52:56.965Z,-0.68
2023-02-28T16:55:27.598Z,-0.77
2023-02-28T16:57:57.464Z,-0.87
2023-02-28T17:00:25.741Z,-0.94
2023-02-28T17:02:53.136Z,-0.99
2023-02-28T17:05:20.573Z,-1.01
2023-02-28T17:07:49.044Z,-0.93
2023-02-28T17:10:20.458Z,-0.89
2023-02-28T17:12:47.703Z,-0.80
2023-02-28T17:15:16.743Z,-0.85
2023-02-28T17:17:47.445Z,-0.90
2023-02-28T17:20:23.383Z,-0.86
2023-02-28T17:22:51.826Z,-0.93
2023-02-28T17:25:19.285Z,-0.98
2023-02-28T17:27:46.673Z,-0.98
2023-02-28T17:30:22.632Z,-0.90
2023-02-28T17:32:49.787Z,-0.82
2023-02-28T17:35:17.438Z,-0.76
2023-02-28T17:37:51.397Z,-0.84
2023-02-28T17:40:28.719Z,-0.96
2023-02-28T17:42:57.720Z,-1.06
2023-02-28T17:45:25.151Z,-1.10
2023-02-28T17:47:52.594Z,-1.10
2023-02-28T17:50:22.445Z,-0.94
2023-02-28T17:52:51.304Z,-0.96
2023-02-28T17:55:20.159Z,-0.86
2023-02-28T17:57:47.545Z,-0.83
2023-02-28T18:00:16.901Z,-1.01
2023-02-28T18:02:44.941Z,-1.10
2023-02-28T18:05:12.473Z,-1.14
2023-02-28T18:07:43.051Z,-1.11
2023-02-28T18:10:20.482Z,-1.02
2023-02-28T18:12:52.692Z,-1.02
2023-02-28T18:15:22.024Z,-1.00
2023-02-28T18:17:50.366Z,-0.92
2023-02-28T18:20:20.263Z,-1.03
2023-02-28T18:22:54.964Z,-1.11
2023-02-28T18:25:23.040Z,-1.18
2023-02-28T18:27:59.294Z,-1.16
2023-02-28T18:30:32.346Z,-1.18
2023-02-28T18:33:00.401Z,-1.23
2023-02-28T18:35:39.051Z,-1.19
2023-02-28T18:38:19.207Z,-1.21
2023-02-28T18:41:01.360Z,-1.33
2023-02-28T18:43:33.207Z,-1.40
2023-02-28T18:46:07.630Z,-1.39
2023-02-28T18:48:35.646Z,-1.30
2023-02-28T18:51:15.298Z,-1.11
2023-02-28T18:53:43.319Z,-1.35
2023-02-28T18:56:15.568Z,-1.46
2023-02-28T18:58:43.061Z,-1.53
2023-02-28T19:01:30.540Z,-1.63
2023-02-28T19:04:04.686Z,-1.72
2023-02-28T19:06:33.685Z,-1.77
2023-02-28T19:09:02.345Z,-1.53
2023-02-28T19:11:31.205Z,-1.53
2023-02-28T19:14:01.197Z,-1.61
2023-02-28T19:16:31.734Z,-1.58
2023-02-28T19:19:01.626Z,-1.59
2023-02-28T19:21:29.329Z,-1.67
2023-02-28T19:23:56.431Z,-1.72
2023-02-28T19:26:27.255Z,-1.67
2023-02-28T19:28:54.569Z,-1.71
2023-02-28T19:31:27.447Z,-1.64
2023-02-28T19:33:57.254Z,-1.70
2023-02-28T19:36:33.156Z,-1.71
2023-02-28T19:39:05.032Z,-1.83
2023-02-28T19:41:32.270Z,-1.92
2023-02-28T19:44:01.721Z,-1.96
2023-02-28T19:46:29.312Z,-2.01
2023-02-28T19:49:01.532Z,-2.08
2023-02-28T19:51:52.459Z,-2.14
2023-02-28T19:54:23.537Z,-2.17
2023-02-28T19:56:51.357Z,-2.16
2023-02-28T19:59:35.720Z,-2.15
2023-02-28T20:04:55.361Z,-2.31
2023-02-28T20:07:23.738Z,-2.34
2023-02-28T20:09:53.855Z,-2.34
2023-02-28T20:12:24.377Z,-2.33
2023-02-28T20:14:55.104Z,-2.34
2023-02-28T20:17:25.925Z,-2.32
2023-02-28T20:19:53.211Z,-2.30
2023-02-28T20:22:20.352Z,-2.30
2023-02-28T20:24:50.604Z,-2.25
2023-02-28T20:27:27.336Z,-2.25
2023-02-28T20:29:54.502Z,-2.28
2023-02-28T20:32:21.721Z,-2.35
2023-02-28T20:34:50.401Z,-2.47
2023-02-28T20:37:20.562Z,-2.51
2023-02-28T20:39:49.767Z,-2.58
2023-02-28T20:42:19.551Z,-2.51
2023-02-28T20:44:46.860Z,-2.53
2023-02-28T20:47:14.387Z,-2.60
2023-02-28T20:49:51.597Z,-2.52
2023-02-28T20:52:19.575Z,-2.64
2023-02-28T20:54:49.628Z,-2.52
2023-02-28T20:57:28.839Z,-2.54
2023-02-28T21:00:01.782Z,-2.59
2023-02-28T21:02:29.513Z,-2.66
2023-02-28T21:04:56.668Z,-2.67
2023-02-28T21:07:28.281Z,-2.78
2023-02-28T21:09:58.580Z,-2.69
2023-02-28T21:12:37.273Z,-2.76
2023-02-28T21:15:05.603Z,-2.74
2023-02-28T21:17:32.779Z,-2.78
2023-02-28T21:19:59.844Z,-2.72
2023-02-28T21:22:29.936Z,-2.75
2023-02-28T21:25:09.095Z,-2.85
2023-02-28T21:27:46.531Z,-2.69
2023-02-28T21:30:16.675Z,-2.78
2023-02-28T21:32:44.258Z,-2.78
2023-02-28T21:35:11.605Z,-2.73
2023-02-28T21:37:47.450Z,-2.81
2023-02-28T21:40:14.760Z,-2.73
2023-02-28T21:42:42.147Z,-2.80
2023-02-28T21:45:09.469Z,-2.80
2023-02-28T21:47:36.679Z,-2.95
2023-02-28T21:50:04.057Z,-2.99
2023-02-28T21:52:31.385Z,-2.95
2023-02-28T21:54:58.713Z,-2.94
2023-02-28T21:57:25.871Z,-2.94
2023-02-28T21:59:52.988Z,-3.02
2023-02-28T22:02:20.165Z,-2.91
2023-02-28T22:04:47.357Z,-2.94
2023-02-28T22:07:14.686Z,-2.91
2023-02-28T22:09:44.037Z,-3.04
2023-02-28T22:12:11.728Z,-3.09
2023-02-28T22:14:40.314Z,-3.11
2023-02-28T22:17:07.715Z,-3.15
2023-02-28T22:19:36.050Z,-3.19
2023-02-28T22:22:03.435Z,-3.24
2023-02-28T22:24:30.612Z,-3.22
2023-02-28T22:26:58.677Z,-3.22
2023-02-28T22:29:26.468Z,-3.31
2023-02-28T22:31:53.720Z,-3.34
2023-02-28T22:34:20.891Z,-3.35
2023-02-28T22:36:48.171Z,-3.36
2023-02-28T22:39:16.398Z,-3.47
2023-02-28T22:41:43.782Z,-3.51
2023-02-28T22:44:11.538Z,-3.51
2023-02-28T22:46:39.057Z,-3.49
2023-02-28T22:49:06.660Z,-3.43
2023-02-28T22:51:35.543Z,-3.46
2023-02-28T22:54:04.473Z,-3.36
2023-02-28T22:56:32.332Z,-3.30
2023-02-28T22:59:01.024Z,-3.31
2023-02-28T23:01:33.959Z,-3.38
2023-02-28T23:04:02.821Z,-3.44
2023-02-28T23:06:33.907Z,-3.50
2023-02-28T23:09:05.866Z,-3.52
2023-02-28T23:11:38.003Z,-3.57
2023-02-28T23:14:09.378Z,-3.62
2023-02-28T23:16:51.074Z,-3.66
2023-02-28T23:19:22.531Z,-3.69
2023-02-28T23:21:52.841Z,-3.69
2023-02-28T23:24:22.148Z,-3.56
2023-02-28T23:26:52.442Z,-3.60
2023-02-28T23:29:21.458Z,-3.65
2023-02-28T23:31:50.586Z,-3.79
2023-02-28T23:34:26.718Z,-3.84
2023-02-28T23:36:55.107Z,-3.77
2023-02-28T23:39:23.296Z,-3.91
2023-02-28T23:41:52.904Z,-4.02
2023-02-28T23:44:21.103Z,-4.04
2023-02-28T23:46:51.447Z,-3.83
2023-02-28T23:49:20.277Z,-3.85
2023-02-28T23:51:51.937Z,-3.93
2023-02-28T23:54:22.038Z,-3.97
2023-02-28T23:56:49.248Z,-3.79
2023-02-28T23:59:16.729Z,-3.77
